Ashland, Mississippi
Current Conditions -  °F | °C
As of 6:15 PM on Friday 21 Nov 2014 (Local Time) from KCRX Reporting Station
Overcast Overcast  
Wind Chill: 55°   Ceiling: 11000
Heat Index: 55°   Visibility: 10mi
Dew Point: 36°   Wind: 3mph
Humidity: 47%   Direction: 120°ESE
Pressure: 30.32"   Gusts: NA
Location:  34.83°N, 89.18°W
Report Text: KCRX 220015Z AUTO 12003KT 10SM OVC110 13/02 A3032 RMK AO2
Loading
Personal Weather Stations






























Interactive Weather Map New forecast layout! Learn more

10-Day Weather Forecast

Advertisements
Track Severe Weather on mobile